Time;durP1;ratioP1;P1;durP2;ratioP2;P2;SDS_P1;SDS_P2;PMS_P1;PMS_P2;Temp;Humidity;BMP_temperature;BMP_pressure;BME280_temperature;BME280_humidity;BME280_pressure;Samples;Min_cycle;Max_cycle;Signal;HPM_P1;HPM_P2
2022/03/27 00:00:28;;;;;;;30.42;13.10;;;;;;;6.97;33.42;93576.88;5029971;28;20379;-87
2022/03/27 00:03:14;;;;;;;;;;;;;;;;;;;;;
2022/03/27 00:06:00;;;;;;;;;;;;;;;;;;;;;
2022/03/27 00:08:33;;;;;;;29.90;13.00;;;;;;;6.95;33.42;93578.91;4990274;28;20096;-88
2022/03/27 00:11:28;;;;;;;26.67;13.80;;;;;;;7.08;33.59;93609.84;5024799;28;20121;-88
2022/03/27 00:14:14;;;;;;;28.02;14.10;;;;;;;6.82;33.76;93570.41;5018801;28;20042;-87
2022/03/27 00:17:37;;;;;;;27.15;13.07;;;;;;;7.24;33.84;93632.50;5002747;28;20059;-88
2022/03/27 00:20:17;;;;;;;27.50;13.55;;;;;;;6.75;34.15;93564.53;5014369;28;20156;-87
2022/03/27 00:23:00;;;;;;;;;;;;;;;;;;;;;
2022/03/27 00:25:51;;;;;;;;;;;;;;;;;;;;;
2022/03/27 00:29:16;;;;;;;27.65;13.07;;;;;;;7.19;33.77;93640.22;4995656;28;20080;-87
2022/03/27 00:32:14;;;;;;;;;;;;;;;;;;;;;
2022/03/27 00:35:14;;;;;;;;;;;;;;;;;;;;;
2022/03/27 00:37:57;;;;;;;23.95;13.13;;;;;;;6.70;34.22;93567.06;5000744;28;20120;-91
2022/03/27 00:40:45;;;;;;;27.75;13.73;;;;;;;6.67;34.43;93570.94;5008018;28;20120;-89
2022/03/27 00:43:16;;;;;;;28.13;13.85;;;;;;;6.57;34.20;93554.34;5011342;28;20069;-88
2022/03/27 00:46:04;;;;;;;27.23;12.63;;;;;;;6.71;34.03;93583.47;5010781;28;20055;-87
2022/03/27 00:48:42;;;;;;;;;;;;;;;;;;;;;
2022/03/27 00:51:18;;;;;;;31.48;14.00;;;;;;;6.73;34.19;93597.81;4994852;28;20042;-88
2022/03/27 00:53:54;;;;;;;26.73;13.10;;;;;;;6.50;33.72;93561.53;4998386;28;20046;-88
2022/03/27 00:56:46;;;;;;;;;;;;;;;;;;;;;
2022/03/27 00:59:39;;;;;;;29.33;13.25;;;;;;;6.84;33.76;93609.19;5008500;28;20038;-88
2022/03/27 01:03:00;;;;;;;23.90;12.52;;;;;;;6.68;33.86;93589.94;5016004;28;20132;-87
2022/03/27 01:05:48;;;;;;;27.95;13.38;;;;;;;6.78;33.90;93594.53;5012169;28;20068;-89
2022/03/27 01:11:30;;;;;;;29.20;13.48;;;;;;;6.52;34.35;93565.47;5013993;28;20120;-88
2022/03/27 01:14:30;;;;;;;28.13;12.90;;;;;;;6.46;34.10;93564.59;5005373;28;20038;-88
2022/03/27 01:17:35;;;;;;;;;;;;;;;;;;;;;
2022/03/27 01:23:48;;;;;;;26.83;13.38;;;;;;;6.66;34.80;93607.59;5021639;28;20045;-88
2022/03/27 01:26:31;;;;;;;;;;;;;;;;;;;;;
2022/03/27 01:29:25;;;;;;;28.13;12.55;;;;;;;6.33;34.61;93556.31;5008647;28;20068;-89
2022/03/27 01:32:30;;;;;;;27.13;13.23;;;;;;;6.29;35.17;93561.19;5016941;28;20037;-87
2022/03/27 01:35:45;;;;;;;;;;;;;;;;;;;;;
2022/03/27 01:38:16;;;;;;;30.95;13.20;;;;;;;6.58;35.56;93618.41;4996607;28;20041;-86
2022/03/27 01:41:39;;;;;;;25.98;12.23;;;;;;;6.10;35.58;93557.16;4998880;28;20046;-86
2022/03/27 01:44:25;;;;;;;;;;;;;;;6.51;36.08;93621.13;4998545;28;20036;-87
2022/03/27 01:47:12;;;;;;;26.25;12.05;;;;;;;6.08;35.82;93560.03;5004423;28;19963;-86
2022/03/27 01:49:57;;;;;;;26.85;12.73;;;;;;;6.02;35.87;93550.53;5015829;28;20045;-87
2022/03/27 01:52:52;;;;;;;30.95;12.70;;;;;;;6.02;35.34;93553.94;5011481;28;20037;-88
2022/03/27 01:55:34;;;;;;;32.10;13.30;;;;;;;6.25;35.50;93581.63;5013259;28;20044;-87
2022/03/27 01:58:27;;;;;;;32.88;14.40;;;;;;;6.14;35.54;93573.88;5024573;28;20554;-86
2022/03/27 02:01:19;;;;;;;32.30;13.82;;;;;;;5.95;35.29;93545.47;5032421;28;20048;-89
2022/03/27 02:04:01;;;;;;;;;;;;;;;;;;;;;
2022/03/27 02:06:36;;;;;;;26.38;12.73;;;;;;;5.88;35.67;93531.81;5018674;28;20038;-87
2022/03/27 02:09:03;;;;;;;26.55;13.00;;;;;;;5.86;35.73;93527.88;4992393;28;20046;-88
2022/03/27 02:11:48;;;;;;;28.70;13.98;;;;;;;5.85;35.91;93542.63;5031143;28;20558;-88
2022/03/27 02:14:31;;;;;;;26.30;13.00;;;;;;;6.08;36.39;93570.41;5017995;28;20380;-88
2022/03/27 02:17:32;;;;;;;29.60;13.65;;;;;;;6.03;36.10;93572.91;5002603;28;20041;-88
2022/03/27 02:20:31;;;;;;;27.15;13.50;;;;;;;6.01;36.49;93573.16;5010608;28;20041;-89
2022/03/27 02:23:28;;;;;;;27.55;13.90;;;;;;;5.89;36.56;93554.16;4983536;28;20523;-88
2022/03/27 02:26:03;;;;;;;29.98;13.75;;;;;;;5.98;36.85;93571.00;5001825;28;20069;-88
2022/03/27 02:28:48;;;;;;;31.08;13.55;;;;;;;5.74;36.60;93527.88;5018958;28;20091;-89
2022/03/27 02:31:38;;;;;;;29.42;13.68;;;;;;;6.07;36.42;93579.22;4998174;28;20069;-88
2022/03/27 02:34:24;;;;;;;28.92;13.20;;;;;;;5.91;36.35;93559.91;5003312;28;20053;-89
2022/03/27 02:37:13;;;;;;;28.77;13.43;;;;;;;5.99;36.58;93577.78;5019352;28;20120;-89
2022/03/27 02:39:56;;;;;;;29.10;13.07;;;;;;;5.66;37.16;93525.66;5019776;28;20110;-88
2022/03/27 02:42:49;;;;;;;31.73;14.27;;;;;;;5.67;36.98;93530.59;5019818;28;20047;-87
2022/03/27 02:45:43;;;;;;;27.33;13.07;;;;;;;5.63;36.56;93522.50;5029926;28;20044;-89
2022/03/27 02:48:18;;;;;;;30.95;13.63;;;;;;;5.87;36.73;93561.41;5026972;28;20047;-88
2022/03/27 02:51:09;;;;;;;30.08;13.35;;;;;;;5.66;36.89;93529.03;4979174;28;20034;-87
2022/03/27 02:53:43;;;;;;;27.17;13.98;;;;;;;5.77;37.71;93562.00;5035592;28;20033;-88
2022/03/27 02:56:19;;;;;;;28.63;13.20;;;;;;;5.88;37.04;93570.78;5017844;28;20049;-88
2022/03/27 02:59:16;;;;;;;30.85;13.63;;;;;;;5.58;37.20;93527.59;5032339;28;20042;-88
2022/03/27 03:01:55;;;;;;;32.63;13.65;;;;;;;5.59;37.44;93531.75;5035173;28;20100;-88
2022/03/27 03:04:41;;;;;;;28.70;13.93;;;;;;;5.92;37.11;93581.50;4991293;28;20030;-87
2022/03/27 03:07:10;;;;;;;31.73;13.60;;;;;;;5.80;37.27;93569.31;4990662;28;20045;-88
2022/03/27 03:10:01;;;;;;;;;;;;;;;;;;;;;
2022/03/27 03:13:00;;;;;;;25.25;12.95;;;;;;;5.60;37.34;93538.53;5015738;28;20040;-88
2022/03/27 03:15:43;;;;;;;28.02;13.30;;;;;;;5.76;37.16;93568.19;4999469;28;20033;-89
2022/03/27 03:18:49;;;;;;;;;;;;;;;;;;;;;
2022/03/27 03:21:31;;;;;;;;;;;;;;;;;;;;;
2022/03/27 03:24:09;;;;;;;30.70;14.43;;;;;;;5.67;36.82;93542.81;5026407;28;20037;-87
2022/03/27 03:27:09;;;;;;;31.02;14.77;;;;;;;5.61;36.98;93531.53;5027365;28;20038;-88
2022/03/27 03:30:00;;;;;;;31.80;13.98;;;;;;;5.48;37.00;93508.41;5009078;28;20482;-88
2022/03/27 03:32:54;;;;;;;29.08;13.80;;;;;;;5.68;37.36;93544.41;5020720;28;20042;-89
2022/03/27 03:35:51;;;;;;;31.50;14.10;;;;;;;5.51;37.10;93524.31;5010686;28;20113;-89
2022/03/27 03:38:16;;;;;;;32.38;15.07;;;;;;;5.69;37.33;93545.97;5009798;28;20040;-89
2022/03/27 03:41:00;;;;;;;28.08;14.05;;;;;;;5.80;36.81;93565.94;5019131;28;20033;-88
2022/03/27 03:43:36;;;;;;;31.60;14.00;;;;;;;5.69;37.48;93545.97;5012432;28;20068;-92
2022/03/27 03:46:27;;;;;;;;;;;;;;;;;;;;;
2022/03/27 03:49:26;;;;;;;;;;;;;;;;;;;;;
2022/03/27 03:52:16;;;;;;;27.33;13.68;;;;;;;5.78;38.27;93566.16;5002415;28;20052;-87
2022/03/27 03:54:57;;;;;;;33.80;13.95;;;;;;;5.62;38.40;93544.28;5000087;28;20033;-88
2022/03/27 03:57:56;;;;;;;;;;;;;;;;;;;;;
2022/03/27 04:03:54;;;;;;;;;;;;;;;;;;;;;
2022/03/27 04:07:10;;;;;;;;;;;;;;;;;;;;;
2022/03/27 04:09:46;;;;;;;28.80;13.43;;;;;;;5.57;37.91;93538.22;5029770;28;20101;-88
2022/03/27 04:12:49;;;;;;;26.75;13.02;;;;;;;5.56;38.07;93527.03;5021118;28;20490;-88
2022/03/27 04:15:42;;;;;;;30.27;13.45;;;;;;;5.50;37.71;93516.78;5006176;28;20061;-88
2022/03/27 04:18:25;;;;;;;;;;;;;;;;;;;;;
2022/03/27 04:21:09;;;;;;;31.50;13.82;;;;;;;5.56;37.55;93518.44;5034071;28;20092;-88
2022/03/27 04:23:48;;;;;;;30.98;13.20;;;;;;;5.46;38.63;93500.84;5000535;28;20065;-88
2022/03/27 04:26:43;;;;;;;;;;;;;;;;;;;;;
2022/03/27 04:29:24;;;;;;;30.08;13.30;;;;;;;5.34;38.99;93510.47;5008236;28;20045;-91
2022/03/27 04:31:53;;;;;;;29.67;13.57;;;;;;;5.25;39.24;93519.63;5030253;28;20503;-87
2022/03/27 04:34:43;;;;;;;29.90;13.90;;;;;;;5.27;38.76;93527.97;5026496;28;20041;-88
2022/03/27 04:37:26;;;;;;;;;;;;;;;;;;;;;
2022/03/27 04:40:13;;;;;;;30.05;13.68;;;;;;;5.13;39.64;93520.41;4998537;28;20037;-88
2022/03/27 04:42:45;;;;;;;27.17;13.17;;;;;;;5.06;39.39;93519.75;5006324;28;20124;-88
2022/03/27 04:45:49;;;;;;;29.92;13.70;;;;;;;5.33;39.26;93564.19;5016463;28;20288;-88
2022/03/27 04:48:45;;;;;;;29.75;14.05;;;;;;;5.03;39.37;93514.22;5016674;28;20088;-89
2022/03/27 04:51:27;;;;;;;;;;;;;;;;;;;;;
2022/03/27 04:53:55;;;;;;;29.88;13.95;;;;;;;5.00;39.44;93520.66;5015529;28;20041;-88
2022/03/27 04:56:44;;;;;;;27.65;13.88;;;;;;;5.29;39.50;93572.66;5017109;28;20021;-89
2022/03/27 04:59:32;;;;;;;26.33;13.13;;;;;;;4.97;39.49;93521.09;5045920;28;20073;-89
2022/03/27 05:02:18;;;;;;;26.02;13.05;;;;;;;5.11;39.50;93543.22;5016681;28;20041;-87
2022/03/27 05:05:33;;;;;;;29.38;13.82;;;;;;;5.06;39.24;93534.53;4996055;28;20128;-87
2022/03/27 05:08:20;;;;;;;30.95;13.45;;;;;;;5.22;39.05;93552.81;5014298;28;20042;-90
2022/03/27 05:11:06;;;;;;;34.00;14.65;;;;;;;5.10;38.62;93533.84;4993467;28;20038;-89
2022/03/27 05:13:40;;;;;;;29.00;12.23;;;;;;;5.40;37.79;93553.69;4990281;28;20394;-88
2022/03/27 05:16:38;;;;;;;29.25;13.00;;;;;;;5.35;37.98;93531.00;4988951;28;20034;-87
2022/03/27 05:22:05;;;;;;;29.08;13.13;;;;;;;5.59;37.64;93557.72;4991022;28;20046;-88
2022/03/27 05:25:06;;;;;;;29.55;14.15;;;;;;;5.88;38.00;93557.78;5027634;28;20026;-88
2022/03/27 05:27:56;;;;;;;30.00;13.18;;;;;;;5.76;37.69;93531.03;5007651;28;20038;-88
2022/03/27 05:33:53;;;;;;;25.92;12.45;;;;;;;5.72;37.71;93540.31;5002157;28;20646;-88
2022/03/27 05:36:32;;;;;;;28.40;13.15;;;;;;;5.86;36.81;93540.84;4992901;28;20048;-87
2022/03/27 05:38:58;;;;;;;25.38;12.27;;;;;;;6.17;36.76;93583.81;5015739;28;20033;-86
2022/03/27 05:41:24;;;;;;;29.33;13.25;;;;;;;6.41;36.73;93611.31;5011498;28;20038;-86
2022/03/27 05:43:49;;;;;;;26.95;13.02;;;;;;;6.51;36.89;93600.31;5008893;28;20034;-86
2022/03/27 05:46:15;;;;;;;28.60;13.40;;;;;;;6.47;36.88;93586.97;4992682;28;20117;-87
2022/03/27 05:48:40;;;;;;;30.33;12.48;;;;;;;6.62;36.69;93602.09;4976698;28;20042;-87
2022/03/27 05:51:06;;;;;;;29.23;12.07;;;;;;;6.69;36.56;93599.34;5004099;28;20052;-86
2022/03/27 05:53:32;;;;;;;25.33;12.27;;;;;;;6.93;36.14;93614.81;4998351;28;20058;-89
2022/03/27 05:55:59;;;;;;;26.55;12.43;;;;;;;7.07;35.97;93622.09;5014752;28;20038;-87
2022/03/27 05:58:24;;;;;;;29.30;11.82;;;;;;;7.56;35.25;93624.09;5014434;28;20041;-87
2022/03/27 06:00:53;;;;;;;24.60;11.05;;;;;;;9.27;32.05;93600.38;4991551;28;20041;-88
2022/03/27 06:03:19;;;;;;;27.83;11.60;;;;;;;11.13;30.10;93615.81;5001977;28;20414;-87
2022/03/27 06:05:44;;;;;;;24.02;11.55;;;;;;;12.60;27.98;93623.66;4999955;28;20136;-86
2022/03/27 06:08:10;;;;;;;23.27;12.07;;;;;;;13.54;25.67;93600.69;4993308;28;20041;-86
2022/03/27 06:10:38;;;;;;;26.25;12.63;;;;;;;14.43;24.12;93602.13;5005317;28;20096;-87
2022/03/27 06:13:04;;;;;;;24.50;12.05;;;;;;;15.39;23.79;93612.41;5007450;28;20041;-87
2022/03/27 06:15:32;;;;;;;24.60;12.25;;;;;;;16.05;22.46;93601.06;5007002;28;20442;-86
2022/03/27 06:17:58;;;;;;;25.05;13.02;;;;;;;16.81;21.90;93602.19;5014212;28;20030;-87
2022/03/27 06:20:27;;;;;;;25.85;12.68;;;;;;;17.58;21.03;93612.91;5013958;28;20478;-88
2022/03/27 06:22:53;;;;;;;29.42;12.43;;;;;;;18.02;20.53;93585.59;5013677;28;20052;-87
2022/03/27 06:25:22;;;;;;;24.80;13.07;;;;;;;18.79;19.96;93610.03;5015738;28;20044;-87
2022/03/27 06:27:49;;;;;;;24.88;13.02;;;;;;;19.37;19.39;93617.88;5031780;28;20056;-86
2022/03/27 06:30:18;;;;;;;25.98;13.27;;;;;;;19.85;18.80;93608.94;5004629;28;20049;-86
2022/03/27 06:32:45;;;;;;;30.42;13.98;;;;;;;20.50;20.89;93601.66;5024538;28;20124;-87
2022/03/27 06:35:12;;;;;;;25.73;14.15;;;;;;;21.03;17.88;93618.91;5015723;28;20094;-87
2022/03/27 06:37:39;;;;;;;23.42;13.18;;;;;;;21.40;18.34;93616.44;5018619;28;20033;-86
2022/03/27 06:40:06;;;;;;;27.10;12.73;;;;;;;21.88;19.27;93619.63;5021204;28;20037;-87
2022/03/27 06:42:31;;;;;;;25.95;12.40;;;;;;;21.61;17.64;93581.78;5026742;28;20044;-86
2022/03/27 06:44:58;;;;;;;29.13;12.63;;;;;;;22.32;17.30;93612.75;5019694;28;20033;-86
2022/03/27 06:47:26;;;;;;;25.27;13.13;;;;;;;22.28;17.38;93605.75;5021453;28;20045;-86
2022/03/27 06:49:53;;;;;;;23.52;12.75;;;;;;;22.82;15.59;93621.53;5011534;28;20123;-88
2022/03/27 06:52:20;;;;;;;27.88;14.13;;;;;;;23.19;17.42;93592.13;5021797;28;20158;-87
2022/03/27 06:54:46;;;;;;;24.50;13.48;;;;;;;24.36;14.93;93619.66;5031813;28;20038;-87
2022/03/27 06:57:12;;;;;;;25.98;13.98;;;;;;;24.65;15.13;93608.53;5017251;28;20128;-87
2022/03/27 07:05:12;;;;;;;20.27;12.55;;;;;;;24.50;14.20;93622.72;5034954;28;20061;-86
2022/03/27 07:07:39;;;;;;;21.25;12.65;;;;;;;23.51;14.69;93627.75;5031153;28;20046;-88
2022/03/27 07:10:05;;;;;;;23.10;12.75;;;;;;;25.08;14.06;93622.91;5014878;28;20042;-88
2022/03/27 07:12:31;;;;;;;21.08;12.93;;;;;;;25.45;13.62;93627.91;5010341;28;20058;-88
2022/03/27 07:14:57;;;;;;;21.65;12.48;;;;;;;25.80;13.80;93637.00;5014547;28;20573;-87
2022/03/27 07:17:23;;;;;;;21.00;12.00;;;;;;;25.37;13.59;93633.47;5013545;28;20081;-86
2022/03/27 07:19:49;;;;;;;23.02;12.68;;;;;;;24.14;13.93;93635.19;5029813;28;20491;-87
2022/03/27 07:22:15;;;;;;;22.30;13.43;;;;;;;24.24;14.00;93634.69;5033213;28;20490;-88
2022/03/27 07:24:41;;;;;;;21.35;12.55;;;;;;;21.93;15.57;93622.06;5024323;28;20096;-88
2022/03/27 07:27:08;;;;;;;24.58;12.68;;;;;;;20.78;16.86;93634.72;5015014;28;20055;-87
2022/03/27 07:29:38;;;;;;;22.13;12.90;;;;;;;19.26;18.62;93625.38;4997216;28;20048;-88
2022/03/27 07:32:05;;;;;;;20.05;12.10;;;;;;;18.67;19.49;93631.03;5033547;28;20537;-87
2022/03/27 07:34:35;;;;;;;23.38;11.65;;;;;;;18.21;19.96;93641.00;5032744;28;20099;-86
2022/03/27 07:37:03;;;;;;;22.08;12.32;;;;;;;17.23;20.61;93655.78;4999283;28;20037;-87
2022/03/27 07:39:29;;;;;;;23.83;12.65;;;;;;;16.63;22.24;93619.72;4995499;28;20056;-86
2022/03/27 07:41:55;;;;;;;26.30;12.35;;;;;;;16.76;21.73;93625.31;4993613;28;20033;-86
2022/03/27 07:44:21;;;;;;;23.40;12.43;;;;;;;16.50;21.72;93606.53;5025902;28;20044;-88
2022/03/27 07:46:48;;;;;;;23.88;12.32;;;;;;;16.49;22.35;93641.97;5015630;28;20057;-86
2022/03/27 07:49:14;;;;;;;23.05;12.48;;;;;;;16.37;23.03;93656.47;5012070;28;20041;-87
2022/03/27 07:51:39;;;;;;;22.05;12.35;;;;;;;15.97;22.44;93652.69;5010315;28;20391;-91
2022/03/27 07:54:05;;;;;;;22.85;12.95;;;;;;;15.24;24.47;93656.72;4997854;28;20037;-90
2022/03/27 07:56:32;;;;;;;23.33;12.70;;;;;;;15.16;23.34;93637.84;4990659;28;20069;-91
2022/03/27 07:58:57;;;;;;;26.42;12.35;;;;;;;14.60;24.69;93635.94;5013348;28;20033;-89
2022/03/27 08:01:24;;;;;;;20.90;11.38;;;;;;;13.98;25.19;93632.38;5016899;28;20030;-90
2022/03/27 08:03:50;;;;;;;23.17;11.73;;;;;;;14.26;24.44;93660.53;5016641;28;20053;-88
2022/03/27 08:06:16;;;;;;;21.98;11.82;;;;;;;14.14;25.03;93644.34;5013079;28;20026;-90
2022/03/27 08:08:42;;;;;;;21.42;11.77;;;;;;;14.51;25.07;93658.69;4993611;28;20587;-88
2022/03/27 08:11:09;;;;;;;25.02;12.52;;;;;;;14.32;24.56;93662.06;5027145;28;20499;-89
2022/03/27 08:13:35;;;;;;;23.92;12.50;;;;;;;14.10;24.92;93638.06;4999904;28;20064;-91
2022/03/27 08:16:09;;;;;;;20.50;11.50;;;;;;;14.29;24.89;93665.22;4980247;28;20047;-89
2022/03/27 08:19:05;;;;;;;27.45;11.63;;;;;;;14.16;24.79;93618.50;5012802;28;20039;-89
2022/03/27 08:24:33;;;;;;;26.25;12.77;;;;;;;13.94;25.36;93654.00;4992480;28;20046;-86
2022/03/27 08:27:00;;;;;;;25.63;12.40;;;;;;;14.46;25.06;93674.56;5018049;28;20041;-89
2022/03/27 08:29:34;;;;;;;26.48;12.27;;;;;;;14.57;24.71;93660.22;4992256;28;20047;-90
2022/03/27 08:32:07;;;;;;;22.25;11.75;;;;;;;13.98;24.92;93637.66;5017689;28;20041;-88
2022/03/27 08:34:41;;;;;;;28.33;12.13;;;;;;;14.17;24.67;93643.78;4987844;28;20084;-88
2022/03/27 08:37:15;;;;;;;22.25;12.18;;;;;;;14.16;25.31;93619.31;5010538;28;20587;-90
2022/03/27 08:39:51;;;;;;;22.92;12.27;;;;;;;14.47;25.31;93633.97;5003314;28;20525;-89
2022/03/27 08:42:25;;;;;;;25.42;12.35;;;;;;;14.76;25.04;93657.63;4970722;28;20092;-90
2022/03/27 08:44:51;;;;;;;25.48;12.48;;;;;;;14.27;24.63;93653.41;5016389;28;20563;-88
2022/03/27 08:47:24;;;;;;;19.42;11.70;;;;;;;14.84;24.22;93664.09;5007337;28;20116;-87
2022/03/27 08:50:00;;;;;;;18.15;11.10;;;;;;;15.05;23.94;93669.91;5043956;28;20083;-88
2022/03/27 08:52:59;;;;;;;22.83;13.35;;;;;;;14.77;24.36;93685.53;5004002;28;20503;-88
2022/03/27 08:56:01;;;;;;;20.88;12.25;;;;;;;15.54;22.68;93687.94;4984374;28;20046;-88
2022/03/27 08:58:40;;;;;;;26.77;13.07;;;;;;;15.62;24.55;93647.66;5003966;28;20053;-89
2022/03/27 09:01:11;;;;;;;22.77;12.40;;;;;;;15.65;22.43;93629.69;5025871;28;20088;-88
2022/03/27 09:04:00;;;;;;;25.27;12.30;;;;;;;15.87;22.47;93655.50;5024382;28;20029;-89
2022/03/27 09:06:28;;;;;;;26.35;12.40;;;;;;;15.71;23.04;93661.03;5016563;28;20037;-90
2022/03/27 09:08:54;;;;;;;24.88;12.32;;;;;;;16.06;22.56;93697.72;5025132;28;20066;-87
2022/03/27 09:11:21;;;;;;;25.33;13.50;;;;;;;16.38;21.51;93687.06;4996506;28;20041;-87
2022/03/27 09:13:52;;;;;;;24.88;13.30;;;;;;;16.29;21.33;93674.84;5009596;28;20037;-87
2022/03/27 09:16:19;;;;;;;21.67;12.38;;;;;;;16.11;21.44;93653.47;5025095;28;20034;-85
2022/03/27 09:18:49;;;;;;;26.77;13.80;;;;;;;16.26;21.76;93691.25;5004172;28;20533;-87
2022/03/27 09:21:15;;;;;;;23.95;12.32;;;;;;;16.60;21.96;93681.13;5023020;28;20060;-85
2022/03/27 09:23:41;;;;;;;29.20;13.45;;;;;;;16.58;21.81;93677.22;5023836;28;20029;-85
2022/03/27 09:26:11;;;;;;;25.85;14.43;;;;;;;16.91;22.33;93685.03;5010397;28;20041;-88
2022/03/27 09:28:40;;;;;;;27.90;14.27;;;;;;;17.08;22.68;93695.78;5031404;28;20061;-86
2022/03/27 09:31:14;;;;;;;26.65;14.32;;;;;;;16.13;23.05;93695.47;5009914;28;20044;-86
2022/03/27 09:33:48;;;;;;;27.10;13.40;;;;;;;15.99;22.42;93698.09;5029378;28;20132;-89
2022/03/27 09:36:42;;;;;;;22.88;12.70;;;;;;;15.84;21.94;93680.63;5027276;28;20195;-86
2022/03/27 09:39:22;;;;;;;27.33;13.40;;;;;;;15.30;23.84;93698.56;5026142;28;20048;-86
2022/03/27 09:41:54;;;;;;;24.27;14.15;;;;;;;14.88;24.40;93697.56;5031195;28;20475;-85
2022/03/27 09:44:21;;;;;;;29.90;14.70;;;;;;;15.48;24.80;93704.91;5013724;28;20025;-87
2022/03/27 09:46:57;;;;;;;28.50;14.60;;;;;;;15.41;23.95;93693.94;5029649;28;20042;-85
2022/03/27 09:49:35;;;;;;;28.85;15.10;;;;;;;15.78;23.63;93701.06;5013848;28;20038;-87
2022/03/27 09:52:08;;;;;;;27.05;15.38;;;;;;;16.36;23.71;93704.31;5012784;28;20095;-85
2022/03/27 09:54:48;;;;;;;30.10;15.60;;;;;;;16.43;23.02;93696.75;4997053;28;20039;-88
2022/03/27 09:57:22;;;;;;;31.33;16.15;;;;;;;15.68;24.03;93703.03;5027980;28;20037;-85
2022/03/27 09:59:49;;;;;;;33.95;15.77;;;;;;;16.52;23.57;93694.22;5008337;28;20042;-86
2022/03/27 10:02:19;;;;;;;33.63;16.15;;;;;;;16.27;23.81;93703.41;5007139;28;20140;-86
2022/03/27 10:05:03;;;;;;;28.13;14.82;;;;;;;16.02;24.90;93702.78;5012053;28;20073;-86
2022/03/27 10:07:37;;;;;;;31.58;15.88;;;;;;;16.96;24.78;93695.53;5019390;28;20060;-86
2022/03/27 10:10:04;;;;;;;31.48;16.30;;;;;;;16.93;24.50;93704.84;5009435;28;20489;-86
2022/03/27 10:12:33;;;;;;;29.65;15.18;;;;;;;16.62;25.08;93699.34;5009772;28;20418;-87
2022/03/27 10:15:03;;;;;;;31.25;16.30;;;;;;;16.37;24.74;93693.44;5031666;28;20059;-86
2022/03/27 10:17:32;;;;;;;33.80;16.42;;;;;;;16.57;24.27;93707.34;5029164;28;20088;-86
2022/03/27 10:20:04;;;;;;;32.65;17.33;;;;;;;16.79;23.30;93699.53;5029973;28;20103;-87
2022/03/27 10:22:31;;;;;;;31.30;16.65;;;;;;;16.96;23.21;93693.66;5030382;28;20053;-86
2022/03/27 10:25:01;;;;;;;31.50;16.23;;;;;;;16.17;24.08;93693.81;5033466;28;20120;-89
2022/03/27 10:27:30;;;;;;;34.47;17.73;;;;;;;15.90;24.14;93690.03;5024901;28;20049;-89
2022/03/27 10:29:57;;;;;;;37.72;17.70;;;;;;;16.80;24.03;93692.41;5016799;28;20038;-89
2022/03/27 10:32:22;;;;;;;33.10;16.70;;;;;;;16.43;23.62;93668.47;5016833;28;20042;-89
2022/03/27 10:35:05;;;;;;;37.50;19.70;;;;;;;15.94;24.20;93691.03;5021917;28;20044;-89
2022/03/27 10:37:42;;;;;;;33.00;16.48;;;;;;;16.68;23.67;93687.56;5021930;28;20025;-90
2022/03/27 10:40:49;;;;;;;37.28;17.65;;;;;;;16.53;23.34;93661.47;5034192;28;20043;-89
2022/03/27 10:43:45;;;;;;;32.45;15.85;;;;;;;17.09;22.99;93683.34;5018883;28;20120;-89
2022/03/27 11:13:46;;;;;;;27.60;15.50;;;;;;;16.26;20.85;93604.88;4987449;28;20053;-89
2022/03/27 11:16:23;;;;;;;33.65;17.85;;;;;;;16.57;20.61;93601.63;4979659;28;20039;-90
2022/03/27 11:19:04;;;;;;;;;;;;;;;;;;;;;
2022/03/27 11:25:52;;;;;;;35.72;16.70;;;;;;;16.58;21.14;93613.78;5013647;28;20108;-89
2022/03/27 11:29:07;;;;;;;;;;;;;;;;;;;;;
2022/03/27 11:32:33;;;;;;;;;;;;;;;;;;;;;
2022/03/27 12:05:52;;;;;;;;;;;;;;;;;;;;;
2022/03/27 12:08:59;;;;;;;;;;;;;;;;;;;;;
2022/03/27 12:11:53;;;;;;;;;;;;;;;;;;;;;
2022/03/27 12:14:46;;;;;;;;;;;;;;;;;;;;;
2022/03/27 12:17:43;;;;;;;29.65;15.60;;;;;;;17.23;21.38;93608.16;5010755;28;20046;-88
2022/03/27 12:20:12;;;;;;;33.67;15.63;;;;;;;17.01;20.80;93569.22;4978713;28;20037;-87
2022/03/27 12:22:57;;;;;;;34.80;17.02;;;;;;;16.85;20.85;93574.09;4998013;28;20043;-88
2022/03/27 12:25:34;;;;;;;30.50;15.32;;;;;;;16.60;20.79;93566.69;5028928;28;20031;-89
2022/03/27 12:31:38;;;;;;;31.60;16.95;;;;;;;16.66;21.06;93589.25;5044254;28;20086;-89
2022/03/27 12:34:21;;;;;;;36.75;17.67;;;;;;;17.58;20.93;93587.19;4987748;28;20048;-87
2022/03/27 12:37:16;;;;;;;34.33;17.08;;;;;;;17.64;20.35;93612.47;5021354;28;20041;-89
2022/03/27 12:39:53;;;;;;;30.05;15.27;;;;;;;17.43;20.78;93598.97;5009256;28;20087;-87
2022/03/27 12:43:41;;;;;;;31.83;16.02;;;;;;;16.83;21.57;93568.31;4993057;28;20047;-90
2022/03/27 12:46:45;;;;;;;32.88;16.48;;;;;;;16.78;22.65;93547.25;4999382;28;20041;-89
2022/03/27 12:49:32;;;;;;;36.22;16.63;;;;;;;17.43;21.98;93574.38;5028541;28;20029;-87
2022/03/27 12:52:23;;;;;;;34.85;17.50;;;;;;;17.00;22.19;93553.66;5013290;28;20479;-89
2022/03/27 12:55:33;;;;;;;;;;;;;;;;;;;;;
2022/03/27 12:58:15;;;;;;;35.97;16.15;;;;;;;16.23;23.20;93566.63;5010396;28;20092;-89
2022/03/27 13:01:05;;;;;;;28.50;14.85;;;;;;;16.18;23.32;93571.22;5016533;28;20048;-86
2022/03/27 13:03:47;;;;;;;27.42;13.13;;;;;;;16.18;23.28;93540.28;5006771;28;20502;-88
2022/03/27 13:06:43;;;;;;;34.45;16.50;;;;;;;16.63;22.42;93537.00;5028898;28;20486;-88
2022/03/27 13:09:28;;;;;;;34.85;16.35;;;;;;;16.81;22.26;93554.59;5029069;28;20033;-89
2022/03/27 13:12:16;;;;;;;27.00;14.23;;;;;;;16.61;21.96;93549.72;5015069;28;20518;-90
2022/03/27 13:15:16;;;;;;;;;;;;;;;;;;;;;
2022/03/27 13:18:45;;;;;;;30.88;16.17;;;;;;;16.11;22.23;93558.41;5016566;28;20128;-89
2022/03/27 13:21:49;;;;;;;35.47;16.70;;;;;;;16.98;21.68;93595.50;5008850;28;20041;-88
2022/03/27 13:24:38;;;;;;;27.60;15.15;;;;;;;16.30;21.84;93525.81;5024577;28;20059;-89
2022/03/27 13:27:34;;;;;;;33.45;16.17;;;;;;;17.17;21.32;93595.34;5008288;28;20039;-91
2022/03/27 13:30:38;;;;;;;29.52;14.35;;;;;;;16.98;21.14;93545.25;5020416;28;20030;-91
2022/03/27 13:33:26;;;;;;;;;;;;;;;;;;;;;
2022/03/27 13:36:07;;;;;;;32.92;16.63;;;;;;;16.72;21.02;93531.78;5017334;28;20045;-91
2022/03/27 13:38:45;;;;;;;27.88;14.60;;;;;;;17.01;20.46;93544.66;5026128;28;20104;-89
2022/03/27 13:44:19;;;;;;;;;;;;;;;;;;;;;
2022/03/27 13:47:09;;;;;;;27.67;14.00;;;;;;;16.56;19.94;93528.69;5024827;28;20049;-87
2022/03/27 13:49:46;;;;;;;25.55;11.85;;;;;;;16.43;19.44;93528.41;5013486;28;20083;-87
2022/03/27 13:52:19;;;;;;;26.33;13.15;;;;;;;16.62;19.49;93530.94;5000549;28;20041;-88
2022/03/27 13:54:55;;;;;;;27.08;12.90;;;;;;;16.64;19.02;93528.00;5008646;28;20267;-90
2022/03/27 13:57:45;;;;;;;;;;;;;;;;;;;;;
2022/03/27 14:00:40;;;;;;;21.90;10.95;;;;;;;16.64;18.73;93549.16;5014238;28;20033;-89
2022/03/27 14:03:23;;;;;;;25.80;12.95;;;;;;;16.64;19.31;93575.59;5028995;28;20397;-88
2022/03/27 14:06:01;;;;;;;;;;;;;;;16.49;18.68;93566.09;5027904;28;20037;-88
2022/03/27 14:08:59;;;;;;;21.83;11.45;;;;;;;16.19;19.21;93518.09;5050159;28;19967;-88
2022/03/27 14:11:40;;;;;;;25.20;12.98;;;;;;;16.06;19.42;93541.88;5011178;28;20375;-88
2022/03/27 14:14:16;;;;;;;29.02;13.30;;;;;;;16.45;18.43;93531.56;5017907;28;20052;-88
2022/03/27 14:16:43;;;;;;;22.35;10.95;;;;;;;16.67;18.90;93519.47;5028682;28;20125;-88
2022/03/27 14:19:19;;;;;;;;;;;;;;;;;;;;;
2022/03/27 14:21:49;;;;;;;24.67;12.65;;;;;;;16.19;19.42;93549.03;5016492;28;20045;-89
2022/03/27 14:24:38;;;;;;;23.58;12.43;;;;;;;16.61;19.05;93532.00;5033355;28;20033;-90
2022/03/27 14:27:11;;;;;;;24.73;13.07;;;;;;;16.44;18.94;93526.56;5001557;28;20038;-87
2022/03/27 14:29:39;;;;;;;24.55;13.68;;;;;;;16.60;19.14;93527.81;5000773;28;20034;-88
2022/03/27 14:32:10;;;;;;;23.85;12.52;;;;;;;16.52;19.43;93546.22;5016343;28;20447;-86
2022/03/27 14:34:38;;;;;;;22.75;12.57;;;;;;;16.34;19.42;93511.69;5017235;28;20037;-86
2022/03/27 14:37:04;;;;;;;28.17;13.18;;;;;;;16.56;19.46;93549.84;5021227;28;20120;-89
2022/03/27 14:40:05;;;;;;;25.15;12.27;;;;;;;16.25;19.37;93495.00;5014019;28;20041;-87
2022/03/27 14:42:36;;;;;;;23.55;11.95;;;;;;;16.24;19.39;93504.78;5017144;28;20097;-88
2022/03/27 14:45:14;;;;;;;23.65;13.32;;;;;;;16.19;19.45;93509.41;4998490;28;20371;-88
2022/03/27 14:47:55;;;;;;;26.05;13.23;;;;;;;15.88;19.51;93496.03;5000738;28;20071;-88